Terminal Aerodrome Forecast
Issued by NWS

Home | Current Version | Previous Version | Text Only | Print | Product List | Glossary On
Versions: 1 2 3 4 5 6 7 8 9 10 11 12 13 14 15 16 17 18 19 20 21
000
FTUS43 KGRR 261404 AAA
TAFLAN
TAF AMD
KLAN 261404Z 2614/2712 19012KT P6SM BKN015
     FM261500 20012KT P6SM BKN015
     FM261800 19013KT P6SM VCTS BKN035CB
     FM262100 21015KT 4SM TSRA BR BKN035CB
     FM270000 20015KT 5SM BR VCSH BKN050
     FM270600 22011KT 4SM BR OVC015=

USA.gov is the U.S. government's official web portal to all federal, state and local government web resources and services.